Time;durP1;ratioP1;P1;durP2;ratioP2;P2;SDS_P1;SDS_P2;PMS_P1;PMS_P2;Temp;Humidity;BMP_temperature;BMP_pressure;BME280_temperature;BME280_humidity;BME280_pressure;Samples;Min_cycle;Max_cycle;Signal;HPM_P1;HPM_P2
2022/05/25 00:00:49;;;;;;;3.20;2.40;;;12.40;99.90;;;;;;5057067;28;20253;-49
2022/05/25 00:03:16;;;;;;;3.30;2.10;;;12.40;99.90;;;;;;5056670;28;21111;-53
2022/05/25 00:05:43;;;;;;;3.70;2.20;;;12.40;99.90;;;;;;5051264;28;20980;-46
2022/05/25 00:08:11;;;;;;;2.03;1.90;;;12.30;99.90;;;;;;5053771;28;20306;-50
2022/05/25 00:10:38;;;;;;;2.30;2.20;;;12.30;99.90;;;;;;5048847;28;20938;-48
2022/05/25 00:13:07;;;;;;;2.03;1.93;;;12.20;99.90;;;;;;5046062;28;20601;-52
2022/05/25 00:15:34;;;;;;;2.57;2.37;;;12.10;99.90;;;;;;5049272;28;20245;-49
2022/05/25 00:18:02;;;;;;;3.23;2.70;;;12.10;99.90;;;;;;5049275;28;20226;-45
2022/05/25 00:20:27;;;;;;;2.83;2.63;;;12.00;99.90;;;;;;5033013;28;20210;-50
2022/05/25 00:22:56;;;;;;;3.40;2.20;;;12.00;99.90;;;;;;5045532;28;20201;-46
2022/05/25 00:25:25;;;;;;;3.10;2.80;;;12.00;99.90;;;;;;5049788;28;20207;-49
2022/05/25 00:27:52;;;;;;;2.77;2.30;;;11.90;99.90;;;;;;5064551;28;20230;-50
2022/05/25 00:30:20;;;;;;;2.60;2.40;;;12.00;99.90;;;;;;5056763;28;20213;-54
2022/05/25 00:32:47;;;;;;;3.03;2.83;;;11.90;99.90;;;;;;5058926;28;20186;-50
2022/05/25 00:35:18;;;;;;;2.90;2.70;;;11.90;99.90;;;;;;5042896;28;20210;-51
2022/05/25 00:37:45;;;;;;;3.57;3.27;;;11.90;99.90;;;;;;5050115;28;20227;-48
2022/05/25 00:40:15;;;;;;;3.43;3.20;;;11.80;99.90;;;;;;5048285;28;20249;-53
2022/05/25 00:42:42;;;;;;;3.90;3.60;;;11.80;99.90;;;;;;5043513;28;20195;-50
2022/05/25 00:45:10;;;;;;;3.70;3.40;;;11.80;99.90;;;;;;5046365;28;20227;-54
2022/05/25 00:47:40;;;;;;;3.33;3.03;;;11.80;99.90;;;;;;5060046;28;20221;-48
2022/05/25 00:50:11;;;;;;;4.07;3.63;;;11.80;99.90;;;;;;5063964;28;20564;-51
2022/05/25 00:52:39;;;;;;;3.40;3.10;;;11.80;99.90;;;;;;5045734;28;20217;-49
2022/05/25 00:55:08;;;;;;;3.10;2.90;;;11.80;99.90;;;;;;5048775;28;20609;-48
2022/05/25 00:57:39;;;;;;;3.33;3.13;;;11.80;99.90;;;;;;5041896;28;20285;-52
2022/05/25 01:00:11;;;;;;;4.20;3.80;;;11.80;99.90;;;;;;5046792;28;20207;-48
2022/05/25 01:02:42;;;;;;;5.03;4.00;;;11.80;99.90;;;;;;5042573;28;20955;-48
2022/05/25 01:05:10;;;;;;;4.40;4.00;;;11.70;99.90;;;;;;5051812;28;20668;-51
2022/05/25 01:07:55;;;;;;;5.10;4.00;;;11.80;99.90;;;;;;5040421;28;20260;-47
2022/05/25 01:10:33;;;;;;;4.00;3.70;;;11.80;99.90;;;;;;5045769;28;20207;-54
2022/05/25 01:13:13;;;;;;;4.57;3.97;;;11.70;99.90;;;;;;5044944;28;20207;-47
2022/05/25 01:15:49;;;;;;;4.40;4.03;;;11.70;99.90;;;;;;5041460;28;20198;-51
2022/05/25 01:18:25;;;;;;;5.47;4.40;;;11.70;99.90;;;;;;5043000;28;20284;-51
2022/05/25 01:20:55;;;;;;;6.60;4.10;;;11.70;99.90;;;;;;5044406;28;20202;-48
2022/05/25 01:23:57;;;;;;;4.43;4.03;;;11.70;99.90;;;;;;5042747;28;20221;-52
2022/05/25 01:27:02;;;;;;;5.80;4.33;;;11.70;99.90;;;;;;5044181;28;20226;-52
2022/05/25 01:29:58;;;;;;;4.87;4.53;;;11.70;99.90;;;;;;5045072;28;20191;-48
2022/05/25 01:32:32;;;;;;;5.27;4.77;;;11.60;99.90;;;;;;5043449;28;20769;-51
2022/05/25 01:35:04;;;;;;;5.20;4.80;;;11.60;99.90;;;;;;5055881;28;20652;-50
2022/05/25 01:37:37;;;;;;;4.77;4.47;;;11.50;99.90;;;;;;5044216;28;20207;-50
2022/05/25 01:40:13;;;;;;;5.63;5.13;;;11.50;99.90;;;;;;5041272;28;20286;-50
2022/05/25 01:42:44;;;;;;;5.47;5.07;;;11.50;99.90;;;;;;5043392;28;20203;-47
2022/05/25 01:45:15;;;;;;;5.07;4.67;;;11.50;99.90;;;;;;5049526;28;20219;-48
2022/05/25 01:47:46;;;;;;;5.33;4.83;;;11.50;99.90;;;;;;5052451;28;20217;-47
2022/05/25 01:50:17;;;;;;;5.10;4.70;;;11.50;99.90;;;;;;5043239;28;20202;-48
2022/05/25 01:52:46;;;;;;;7.90;5.07;;;11.60;99.90;;;;;;5040897;28;20199;-46
2022/05/25 01:55:19;;;;;;;6.10;5.60;;;11.60;99.90;;;;;;5047324;28;20207;-52
2022/05/25 01:57:50;;;;;;;5.47;4.97;;;11.60;99.90;;;;;;5046500;28;20211;-48
2022/05/25 02:00:31;;;;;;;6.33;5.60;;;11.60;99.90;;;;;;5043248;28;21061;-52
2022/05/25 02:05:52;;;;;;;6.40;5.80;;;11.60;99.90;;;;;;5045822;28;20984;-47
2022/05/25 02:08:30;;;;;;;5.90;5.33;;;11.50;99.90;;;;;;5036826;28;20238;-52
2022/05/25 02:11:09;;;;;;;6.30;5.80;;;11.50;99.90;;;;;;5052667;28;20301;-47
2022/05/25 02:13:50;;;;;;;5.97;5.33;;;11.50;99.90;;;;;;5053800;28;20206;-47
2022/05/25 02:16:30;;;;;;;5.63;5.13;;;11.60;99.90;;;;;;5056829;28;20252;-51
2022/05/25 02:19:03;;;;;;;5.80;5.40;;;11.60;99.90;;;;;;5043649;28;20219;-50
2022/05/25 02:21:33;;;;;;;5.67;5.23;;;11.60;99.90;;;;;;5043417;28;20894;-52
2022/05/25 02:24:05;;;;;;;6.30;5.57;;;11.60;99.90;;;;;;5043060;28;20207;-48
2022/05/25 02:26:36;;;;;;;5.50;5.00;;;11.60;99.90;;;;;;5034483;28;20260;-46
2022/05/25 02:29:06;;;;;;;6.00;5.50;;;11.60;99.90;;;;;;5043615;28;20305;-45
2022/05/25 02:31:38;;;;;;;6.10;5.53;;;11.70;99.90;;;;;;5050441;28;20252;-46
2022/05/25 02:34:09;;;;;;;6.53;5.93;;;11.70;99.90;;;;;;5059170;28;20195;-45
2022/05/25 02:36:38;;;;;;;6.20;5.70;;;11.70;99.90;;;;;;5055994;28;20194;-48
2022/05/25 02:39:06;;;;;;;6.67;6.07;;;11.70;99.90;;;;;;5062476;28;20221;-47
2022/05/25 02:41:36;;;;;;;6.50;5.97;;;11.70;99.90;;;;;;5037899;28;20195;-47
2022/05/25 02:44:04;;;;;;;6.50;5.90;;;11.70;99.90;;;;;;5049267;28;20226;-46
2022/05/25 02:46:31;;;;;;;6.57;6.07;;;11.70;99.90;;;;;;5047106;28;20194;-45
2022/05/25 02:48:59;;;;;;;6.47;5.87;;;11.70;99.90;;;;;;5052237;28;20274;-46
2022/05/25 02:51:26;;;;;;;6.47;5.87;;;11.80;99.90;;;;;;5039457;28;20203;-50
2022/05/25 02:53:53;;;;;;;6.60;6.10;;;11.80;99.90;;;;;;5046829;28;20559;-47
2022/05/25 02:56:20;;;;;;;6.60;6.00;;;11.80;99.90;;;;;;5035989;28;20202;-53
2022/05/25 02:58:47;;;;;;;7.03;6.27;;;11.80;99.90;;;;;;5045257;28;20219;-46
2022/05/25 03:01:14;;;;;;;6.33;5.83;;;11.80;99.90;;;;;;5041666;28;20207;-46
2022/05/25 03:03:41;;;;;;;6.27;5.77;;;11.80;99.90;;;;;;5041235;28;20199;-46
2022/05/25 03:06:10;;;;;;;6.23;5.73;;;11.80;99.90;;;;;;5048449;28;20223;-50
2022/05/25 03:08:37;;;;;;;6.80;6.27;;;11.90;99.90;;;;;;5039641;28;20222;-48
2022/05/25 03:11:05;;;;;;;8.43;6.37;;;11.80;99.90;;;;;;5049966;28;20196;-48
2022/05/25 03:13:32;;;;;;;6.13;5.57;;;11.80;99.90;;;;;;5042816;28;20207;-46
2022/05/25 03:15:59;;;;;;;5.97;5.47;;;11.80;99.90;;;;;;5050036;28;20659;-46
2022/05/25 03:18:27;;;;;;;5.83;5.33;;;11.80;99.90;;;;;;5042880;28;20276;-47
2022/05/25 03:20:54;;;;;;;6.43;5.83;;;11.70;99.90;;;;;;5043694;28;20203;-47
2022/05/25 03:23:22;;;;;;;6.87;6.17;;;11.70;99.90;;;;;;5043522;28;20211;-50
2022/05/25 03:25:49;;;;;;;9.53;6.77;;;11.70;99.90;;;;;;5047825;28;20738;-50
2022/05/25 03:28:17;;;;;;;7.77;6.97;;;11.70;99.90;;;;;;5044989;28;20577;-49
2022/05/25 03:30:47;;;;;;;8.80;6.70;;;11.70;99.90;;;;;;5043847;28;20210;-46
2022/05/25 03:33:14;;;;;;;6.50;6.00;;;11.70;99.90;;;;;;5059129;28;20202;-50
2022/05/25 03:35:41;;;;;;;7.43;5.90;;;11.70;99.90;;;;;;5049702;28;20275;-47
2022/05/25 03:38:09;;;;;;;6.93;6.33;;;11.70;99.90;;;;;;5065357;28;20214;-49
2022/05/25 03:40:37;;;;;;;8.00;7.13;;;11.70;99.90;;;;;;5059029;28;20218;-49
2022/05/25 03:43:05;;;;;;;7.23;6.40;;;11.70;99.90;;;;;;5049703;28;20202;-46
2022/05/25 03:45:31;;;;;;;6.87;5.70;;;11.60;99.90;;;;;;5061590;28;20217;-49
2022/05/25 03:47:58;;;;;;;8.13;5.87;;;11.60;99.90;;;;;;5051298;28;20233;-45
2022/05/25 03:50:25;;;;;;;7.23;5.87;;;11.50;99.90;;;;;;5045624;28;20198;-49
2022/05/25 03:52:52;;;;;;;8.07;5.50;;;11.40;99.90;;;;;;5046725;28;20221;-46
2022/05/25 03:55:19;;;;;;;5.70;5.20;;;11.40;99.90;;;;;;5049017;28;20199;-51
2022/05/25 03:57:47;;;;;;;6.97;5.63;;;11.40;99.90;;;;;;5052442;28;20757;-51
2022/05/25 04:00:14;;;;;;;6.17;5.57;;;11.40;99.90;;;;;;5042405;28;20690;-42
2022/05/25 04:02:41;;;;;;;5.67;5.17;;;11.30;99.90;;;;;;5041481;28;20199;-55
2022/05/25 04:05:08;;;;;;;6.20;5.70;;;11.30;99.90;;;;;;5043939;28;20227;-48
2022/05/25 04:07:37;;;;;;;8.13;6.00;;;11.30;99.90;;;;;;5044186;28;20232;-49
2022/05/25 04:10:05;;;;;;;6.60;6.10;;;11.30;99.90;;;;;;5049259;28;20969;-50
2022/05/25 04:12:33;;;;;;;7.90;7.20;;;11.30;99.90;;;;;;5051584;28;20199;-47
2022/05/25 04:15:02;;;;;;;7.20;6.60;;;11.20;99.90;;;;;;5037229;28;20187;-51
2022/05/25 04:17:29;;;;;;;7.00;6.40;;;11.20;99.90;;;;;;5057729;28;20219;-54
2022/05/25 04:19:56;;;;;;;7.40;6.77;;;11.20;99.90;;;;;;5045996;28;20202;-50
2022/05/25 04:22:24;;;;;;;7.60;7.00;;;11.20;99.90;;;;;;5064751;28;20216;-53
2022/05/25 04:24:51;;;;;;;7.63;6.63;;;11.20;99.90;;;;;;5048905;28;20603;-50
2022/05/25 04:27:18;;;;;;;7.60;6.90;;;11.20;99.90;;;;;;5045781;28;20617;-48
2022/05/25 04:29:45;;;;;;;7.73;7.00;;;11.20;99.90;;;;;;5040976;28;20203;-45
2022/05/25 04:32:13;;;;;;;8.83;6.67;;;11.20;99.90;;;;;;5052642;28;20211;-45
2022/05/25 04:34:40;;;;;;;7.87;7.17;;;11.30;99.90;;;;;;5041955;28;20202;-47
2022/05/25 04:39:52;;;;;;;10.87;8.33;;;11.40;99.90;;;;;;5058618;28;20253;-49
2022/05/25 04:42:19;;;;;;;9.37;7.20;;;11.40;99.90;;;;;;5051261;28;20207;-49
2022/05/25 04:44:47;;;;;;;9.77;7.90;;;11.40;99.90;;;;;;5044659;28;20222;-53
2022/05/25 04:47:15;;;;;;;9.83;8.83;;;11.40;99.90;;;;;;5046724;28;20234;-47
2022/05/25 04:49:44;;;;;;;9.10;7.80;;;11.40;99.90;;;;;;5047841;28;20199;-49
2022/05/25 04:52:12;;;;;;;8.70;7.90;;;11.40;99.90;;;;;;5044270;28;20214;-49
2022/05/25 04:54:38;;;;;;;8.57;7.47;;;11.50;99.90;;;;;;5045365;28;20203;-53
2022/05/25 04:57:19;;;;;;;8.00;7.30;;;11.50;99.90;;;;;;5042966;28;20218;-49
2022/05/25 04:59:46;;;;;;;14.60;10.97;;;11.50;99.90;;;;;;5042702;28;20222;-49
2022/05/25 05:02:15;;;;;;;11.13;8.53;;;11.50;99.90;;;;;;5050922;28;20214;-47
2022/05/25 05:04:42;;;;;;;11.87;10.37;;;11.60;99.90;;;;;;5045494;28;20223;-51
2022/05/25 05:07:10;;;;;;;9.97;8.10;;;11.60;99.90;;;;;;5062501;28;20348;-48
2022/05/25 05:09:39;;;;;;;7.70;7.00;;;11.70;99.90;;;;;;5048239;28;20199;-55
2022/05/25 05:12:06;;;;;;;8.47;7.60;;;11.70;99.90;;;;;;5054516;28;20416;-53
2022/05/25 05:14:33;;;;;;;9.53;6.67;;;11.70;99.90;;;;;;5048189;28;20244;-49
2022/05/25 05:17:02;;;;;;;8.80;6.93;;;11.80;99.90;;;;;;5048043;28;20210;-42
2022/05/25 05:19:42;;;;;;;8.37;7.40;;;11.80;99.90;;;;;;5040864;28;20304;-47
2022/05/25 05:22:14;;;;;;;9.47;7.73;;;11.90;99.90;;;;;;5054358;28;20203;-42
2022/05/25 05:24:41;;;;;;;9.00;7.80;;;11.90;99.90;;;;;;5054360;28;20214;-43
2022/05/25 05:27:08;;;;;;;8.53;7.73;;;12.00;99.90;;;;;;5051326;28;20207;-42
2022/05/25 05:29:35;;;;;;;8.37;7.53;;;12.10;99.90;;;;;;5053102;28;20659;-49
2022/05/25 05:32:02;;;;;;;11.07;8.87;;;12.10;99.90;;;;;;5046952;28;20199;-49
2022/05/25 05:34:30;;;;;;;10.37;8.03;;;12.10;99.90;;;;;;5039603;28;20572;-45
2022/05/25 05:37:02;;;;;;;8.07;7.10;;;12.20;99.90;;;;;;5044847;28;20206;-45
2022/05/25 05:39:33;;;;;;;8.47;7.13;;;12.30;99.90;;;;;;5051273;28;20549;-44
2022/05/25 05:42:04;;;;;;;9.27;8.47;;;12.30;99.90;;;;;;5041238;28;20927;-42
2022/05/25 05:44:35;;;;;;;8.03;6.57;;;12.40;99.90;;;;;;5045593;28;20219;-43
2022/05/25 05:47:04;;;;;;;10.17;7.40;;;12.40;99.90;;;;;;5049797;28;20233;-42
2022/05/25 05:49:31;;;;;;;9.00;8.10;;;12.50;99.90;;;;;;5040172;28;20238;-42
2022/05/25 05:52:00;;;;;;;8.80;6.43;;;12.50;99.90;;;;;;5052023;28;20198;-44
2022/05/25 05:54:27;;;;;;;8.73;7.93;;;12.60;99.90;;;;;;5046759;28;20553;-43
2022/05/25 05:56:54;;;;;;;6.90;6.13;;;12.70;99.90;;;;;;5040140;28;20199;-42
2022/05/25 05:59:21;;;;;;;5.87;5.37;;;12.70;99.90;;;;;;5048215;28;20207;-44
2022/05/25 06:01:48;;;;;;;6.93;5.50;;;12.70;99.90;;;;;;5050282;28;20198;-45
2022/05/25 06:04:16;;;;;;;7.27;5.70;;;12.80;99.90;;;;;;5039920;28;20209;-45
2022/05/25 06:06:43;;;;;;;7.67;5.57;;;12.90;99.90;;;;;;5052865;28;20216;-44
2022/05/25 06:09:12;;;;;;;6.17;5.30;;;12.90;99.90;;;;;;5047986;28;20225;-43
2022/05/25 06:11:40;;;;;;;6.70;5.50;;;12.90;99.90;;;;;;5044885;28;20720;-42
2022/05/25 06:14:07;;;;;;;6.60;4.77;;;13.00;99.90;;;;;;5041203;28;20691;-44
2022/05/25 06:19:27;;;;;;;6.50;5.20;;;13.10;99.90;;;;;;5043261;28;20195;-45
2022/05/25 06:21:59;;;;;;;5.07;4.53;;;13.20;99.90;;;;;;5045645;28;20296;-45
2022/05/25 06:24:29;;;;;;;4.47;4.07;;;13.30;99.90;;;;;;5045120;28;20328;-45
2022/05/25 06:26:56;;;;;;;4.30;3.90;;;13.30;99.90;;;;;;5053624;28;20222;-44
2022/05/25 06:29:23;;;;;;;4.97;4.40;;;13.40;99.90;;;;;;5045396;28;20970;-43
2022/05/25 06:31:50;;;;;;;5.22;4.75;;;13.50;99.90;;;;;;5047015;28;20448;-43
2022/05/25 06:34:18;;;;;;;4.40;4.00;;;13.70;99.90;;;;;;5046238;28;20206;-45
2022/05/25 06:36:48;;;;;;;4.10;3.80;;;13.70;99.90;;;;;;5044189;28;20194;-45
2022/05/25 06:39:15;;;;;;;5.30;3.50;;;13.70;99.90;;;;;;5046059;28;20203;-45
2022/05/25 06:41:44;;;;;;;4.93;3.30;;;13.80;99.90;;;;;;5043848;28;20203;-47
2022/05/25 06:44:11;;;;;;;3.97;3.63;;;13.80;99.90;;;;;;5049221;28;20458;-41
2022/05/25 06:46:38;;;;;;;4.03;3.33;;;13.80;99.90;;;;;;5050047;28;20226;-41
2022/05/25 06:49:06;;;;;;;4.82;4.30;;;13.80;99.90;;;;;;5043981;28;20903;-42
2022/05/25 06:51:35;;;;;;;6.40;4.93;;;13.90;99.90;;;;;;5034322;28;20289;-44
2022/05/25 06:54:03;;;;;;;7.17;4.20;;;13.90;99.90;;;;;;5046044;28;20274;-42
2022/05/25 06:56:30;;;;;;;4.53;4.13;;;13.90;99.90;;;;;;5050336;28;20944;-42
2022/05/25 06:58:59;;;;;;;5.50;4.63;;;14.00;99.90;;;;;;5043616;28;20451;-43
2022/05/25 07:01:26;;;;;;;4.32;4.00;;;14.10;99.90;;;;;;5047792;28;20422;-42
2022/05/25 07:03:53;;;;;;;4.95;4.47;;;14.40;99.90;;;;;;5048401;28;20440;-41
2022/05/25 07:06:21;;;;;;;4.40;4.10;;;14.60;99.90;;;;;;5033369;28;20447;-45
2022/05/25 07:08:48;;;;;;;5.07;4.32;;;14.70;99.90;;;;;;5059938;28;20432;-45
2022/05/25 07:11:15;;;;;;;3.90;3.57;;;14.90;99.90;;;;;;5045481;28;20207;-47
2022/05/25 07:13:42;;;;;;;4.13;3.80;;;14.80;99.90;;;;;;5053167;28;20442;-44
2022/05/25 07:16:13;;;;;;;3.97;3.60;;;14.90;99.90;;;;;;5043693;28;20449;-43
2022/05/25 07:18:40;;;;;;;3.80;3.50;;;15.10;99.90;;;;;;5039682;28;20522;-43
2022/05/25 07:21:09;;;;;;;3.80;3.50;;;15.30;99.90;;;;;;5038986;28;20820;-46
2022/05/25 07:23:36;;;;;;;4.00;3.70;;;15.40;99.90;;;;;;5046900;28;20448;-44
2022/05/25 07:26:04;;;;;;;4.87;3.67;;;15.50;99.90;;;;;;5048045;28;20222;-44
2022/05/25 07:28:30;;;;;;;3.60;3.30;;;15.40;99.90;;;;;;5052601;28;20218;-47
2022/05/25 07:31:02;;;;;;;4.63;2.97;;;15.30;99.90;;;;;;5048451;28;20205;-42
2022/05/25 07:33:30;;;;;;;3.45;2.97;;;15.20;99.90;;;;;;5045571;28;20608;-47
2022/05/25 07:35:58;;;;;;;3.30;3.00;;;15.30;99.90;;;;;;5058828;28;20416;-44
2022/05/25 07:38:27;;;;;;;3.30;2.75;;;15.50;99.90;;;;;;5046535;28;21211;-46
2022/05/25 07:40:54;;;;;;;2.95;2.75;;;15.50;99.90;;;;;;5049958;28;20484;-43
2022/05/25 07:43:24;;;;;;;5.57;3.05;;;15.60;99.90;;;;;;5044623;28;21045;-42
2022/05/25 07:45:51;;;;;;;5.20;2.60;;;15.70;99.90;;;;;;5056522;28;20456;-45
2022/05/25 07:48:18;;;;;;;4.53;3.07;;;15.50;99.90;;;;;;5035245;28;20412;-43
2022/05/25 07:50:46;;;;;;;2.80;2.60;;;15.60;99.90;;;;;;5047860;28;20191;-44
2022/05/25 07:56:03;;;;;;;3.40;2.80;;;15.70;99.90;;;;;;5052463;28;20195;-42
2022/05/25 07:58:30;;;;;;;3.60;2.38;;;15.60;99.90;;;;;;5046807;28;20473;-45
2022/05/25 08:00:59;;;;;;;2.53;2.33;;;15.70;99.90;;;;;;5049314;28;20264;-46
2022/05/25 08:06:12;;;;;;;4.77;2.60;;;15.60;99.90;;;;;;5042392;28;20325;-43
2022/05/25 08:08:39;;;;;;;2.70;2.20;;;15.50;99.90;;;;;;5034886;28;20447;-45
2022/05/25 08:11:10;;;;;;;2.92;2.72;;;15.60;99.90;;;;;;5049522;28;20974;-43
2022/05/25 08:13:40;;;;;;;3.40;2.70;;;15.70;99.90;;;;;;5051423;28;20203;-45
2022/05/25 08:16:08;;;;;;;3.30;2.47;;;15.80;99.90;;;;;;5043738;28;20252;-46
2022/05/25 08:18:35;;;;;;;3.00;2.80;;;15.90;99.90;;;;;;5059606;28;20218;-42
2022/05/25 08:21:02;;;;;;;3.37;3.07;;;16.10;99.90;;;;;;5045940;28;20255;-49
2022/05/25 08:23:30;;;;;;;4.43;2.77;;;16.20;99.90;;;;;;5052441;28;20190;-43
2022/05/25 08:25:57;;;;;;;2.60;2.40;;;16.20;99.90;;;;;;5051030;28;20280;-43
2022/05/25 08:28:24;;;;;;;2.60;2.40;;;16.30;99.90;;;;;;5046318;28;20209;-42
2022/05/25 08:30:50;;;;;;;5.23;2.40;;;16.30;99.90;;;;;;5054790;28;20198;-43
2022/05/25 08:33:20;;;;;;;3.00;2.50;;;16.30;99.90;;;;;;5055017;28;20784;-44
2022/05/25 08:35:47;;;;;;;4.83;2.80;;;16.30;99.90;;;;;;5047869;28;20204;-41
2022/05/25 08:38:14;;;;;;;4.40;2.67;;;16.20;99.90;;;;;;5042089;28;20231;-47
2022/05/25 08:40:44;;;;;;;3.17;2.87;;;16.20;99.90;;;;;;5045788;28;20208;-44
2022/05/25 08:43:17;;;;;;;2.93;2.20;;;16.10;99.90;;;;;;5048523;28;20397;-45
2022/05/25 08:45:47;;;;;;;2.23;2.07;;;16.20;99.90;;;;;;5049814;28;20553;-44
2022/05/25 08:48:16;;;;;;;4.47;2.60;;;16.20;99.90;;;;;;5050540;28;20223;-48
2022/05/25 08:50:44;;;;;;;3.00;2.50;;;16.10;99.90;;;;;;5047096;28;20654;-44
2022/05/25 08:53:13;;;;;;;2.90;2.43;;;16.10;99.90;;;;;;5048122;28;20210;-48
2022/05/25 08:55:52;;;;;;;3.77;2.40;;;16.10;99.90;;;;;;5056804;28;20199;-47
2022/05/25 08:58:20;;;;;;;2.37;2.17;;;16.00;99.90;;;;;;5037261;28;20219;-48
2022/05/25 09:00:49;;;;;;;3.13;2.00;;;16.00;99.90;;;;;;5049939;28;20210;-44
2022/05/25 09:03:26;;;;;;;3.10;2.53;;;15.90;99.90;;;;;;5041186;28;20199;-44
2022/05/25 09:05:59;;;;;;;4.97;2.53;;;16.00;99.90;;;;;;5034666;28;20226;-47
2022/05/25 09:08:35;;;;;;;2.77;2.57;;;16.30;99.90;;;;;;5043595;28;20222;-46
2022/05/25 09:11:08;;;;;;;4.90;2.53;;;16.60;99.90;;;;;;5044751;28;20473;-49
2022/05/25 09:13:43;;;;;;;2.67;2.47;;;16.70;99.90;;;;;;5036309;28;20949;-46
2022/05/25 09:16:19;;;;;;;3.03;2.40;;;16.70;99.90;;;;;;5051592;28;20270;-43
2022/05/25 09:18:58;;;;;;;2.53;2.30;;;16.70;99.90;;;;;;5048489;28;20214;-46
2022/05/25 09:21:30;;;;;;;2.40;2.30;;;16.70;99.90;;;;;;5051867;28;20206;-45
2022/05/25 09:24:01;;;;;;;2.70;2.50;;;16.80;99.90;;;;;;5037118;28;20202;-46
2022/05/25 09:26:29;;;;;;;3.30;2.10;;;17.00;99.90;;;;;;5058096;28;20694;-46
2022/05/25 09:29:00;;;;;;;2.60;2.40;;;17.20;99.90;;;;;;5046056;28;20215;-46
2022/05/25 09:31:34;;;;;;;2.33;2.03;;;17.40;99.90;;;;;;5052613;28;20683;-44
2022/05/25 09:34:04;;;;;;;2.17;1.97;;;17.40;99.90;;;;;;5044744;28;20290;-48
2022/05/25 09:36:35;;;;;;;1.90;1.80;;;17.50;99.90;;;;;;5049306;28;20226;-46
2022/05/25 09:39:05;;;;;;;2.53;1.90;;;17.50;99.90;;;;;;5042306;28;20296;-43
2022/05/25 09:41:34;;;;;;;2.08;1.98;;;17.30;99.90;;;;;;5044257;28;22479;-45
2022/05/25 09:44:06;;;;;;;2.43;2.10;;;17.30;99.90;;;;;;5033359;28;20672;-47
2022/05/25 09:46:41;;;;;;;2.37;2.10;;;17.10;99.90;;;;;;5039812;28;20203;-46
2022/05/25 09:49:11;;;;;;;1.73;1.63;;;17.00;99.90;;;;;;5045370;28;20203;-50
2022/05/25 09:51:44;;;;;;;2.40;2.30;;;16.90;99.90;;;;;;5039162;28;20203;-43
2022/05/25 09:54:15;;;;;;;2.10;2.00;;;16.90;99.90;;;;;;5037734;28;20732;-44
2022/05/25 09:56:55;;;;;;;2.30;2.10;;;16.90;99.90;;;;;;5050995;28;20191;-46
2022/05/25 09:59:26;;;;;;;3.57;2.40;;;17.00;99.90;;;;;;5027795;28;20262;-48
2022/05/25 10:01:54;;;;;;;3.47;2.93;;;17.00;99.90;;;;;;5048325;28;20690;-47
2022/05/25 10:04:36;;;;;;;2.30;2.20;;;17.10;99.90;;;;;;5046565;28;20203;-44
2022/05/25 10:07:18;;;;;;;2.17;2.07;;;17.50;99.20;;;;;;5041002;28;20776;-46
2022/05/25 10:09:50;;;;;;;3.83;2.80;;;17.70;99.50;;;;;;5048111;28;20248;-46
2022/05/25 10:12:29;;;;;;;2.00;1.90;;;17.70;98.80;;;;;;5036610;28;20562;-48
2022/05/25 10:14:59;;;;;;;2.47;2.07;;;17.60;98.40;;;;;;5042319;28;20214;-44
2022/05/25 10:17:35;;;;;;;5.63;2.85;;;17.60;98.60;;;;;;5047977;28;20436;-44
2022/05/25 10:20:05;;;;;;;3.10;2.50;;;17.80;98.50;;;;;;5041137;28;20447;-44
2022/05/25 10:22:35;;;;;;;3.67;2.20;;;17.90;97.70;;;;;;5042137;28;20203;-44
2022/05/25 10:25:05;;;;;;;1.90;1.80;;;17.80;97.40;;;;;;5034675;28;20195;-45
2022/05/25 10:27:37;;;;;;;2.43;1.83;;;17.80;97.70;;;;;;5045721;28;20218;-49
2022/05/25 10:38:43;;;;;;;3.77;2.70;;;17.80;97.30;;;;;;5043721;28;20281;-43
2022/05/25 10:44:12;;;;;;;2.63;1.77;;;17.90;97.40;;;;;;5044673;28;20195;-44
2022/05/25 10:46:41;;;;;;;3.73;1.40;;;17.90;96.30;;;;;;5046862;28;20221;-47
2022/05/25 10:49:16;;;;;;;2.37;1.83;;;17.80;96.50;;;;;;5042591;28;20211;-43
2022/05/25 10:51:47;;;;;;;1.70;1.60;;;17.80;96.60;;;;;;5041611;28;20569;-43
2022/05/25 10:57:32;;;;;;;3.37;2.07;;;18.10;96.40;;;;;;5042920;28;20318;-46
2022/05/25 11:00:05;;;;;;;2.53;1.30;;;18.30;96.10;;;;;;5042147;28;20211;-45
2022/05/25 11:02:46;;;;;;;2.10;1.50;;;18.50;95.10;;;;;;5042234;28;20277;-47
2022/05/25 11:05:23;;;;;;;1.60;1.50;;;18.50;94.50;;;;;;5045031;28;20221;-46
2022/05/25 11:07:55;;;;;;;1.70;1.60;;;18.50;95.20;;;;;;5040696;28;20238;-47
2022/05/25 11:10:38;;;;;;;1.47;0.90;;;18.60;94.80;;;;;;5042980;28;20613;-47
2022/05/25 11:13:24;;;;;;;0.90;0.90;;;18.60;91.50;;;;;;5034842;28;20293;-45
2022/05/25 11:15:58;;;;;;;1.20;1.10;;;18.40;91.10;;;;;;5033353;28;20203;-47
2022/05/25 11:18:46;;;;;;;0.90;0.90;;;18.30;91.30;;;;;;5033886;28;20753;-44
2022/05/25 11:21:23;;;;;;;0.93;0.93;;;18.20;92.00;;;;;;5044795;28;20199;-47
2022/05/25 11:24:09;;;;;;;1.70;1.30;;;18.30;92.80;;;;;;5039017;28;20202;-49
2022/05/25 11:26:57;;;;;;;2.33;1.40;;;18.20;92.20;;;;;;5046067;28;20301;-44
2022/05/25 11:29:45;;;;;;;7.10;1.37;;;18.20;92.40;;;;;;5047968;28;20270;-48
2022/05/25 11:32:24;;;;;;;1.40;1.30;;;18.50;93.00;;;;;;5045548;28;20215;-44
2022/05/25 11:35:10;;;;;;;2.17;1.70;;;18.80;91.90;;;;;;5035994;28;20957;-47
2022/05/25 11:37:51;;;;;;;2.63;1.60;;;18.90;90.80;;;;;;5039788;28;20305;-64
2022/05/25 11:40:26;;;;;;;3.10;1.60;;;18.80;90.80;;;;;;5044206;28;20199;-47
2022/05/25 11:43:10;;;;;;;3.13;1.40;;;18.70;91.10;;;;;;5038073;28;20223;-51
2022/05/25 11:45:54;;;;;;;1.77;1.30;;;18.80;90.90;;;;;;5042052;28;20276;-45
2022/05/25 11:48:36;;;;;;;1.00;1.00;;;18.90;90.30;;;;;;5045292;28;21083;-46
2022/05/25 11:51:12;;;;;;;1.57;1.20;;;18.90;88.10;;;;;;5042867;28;21044;-45
2022/05/25 11:53:51;;;;;;;0.80;0.73;;;18.90;89.20;;;;;;5048378;28;20690;-47
2022/05/25 11:56:33;;;;;;;1.13;0.80;;;19.00;89.10;;;;;;5049698;28;20206;-46
2022/05/25 11:59:15;;;;;;;1.40;1.30;;;19.10;89.60;;;;;;5045304;28;20235;-45
2022/05/25 12:01:48;;;;;;;2.87;1.10;;;19.20;89.10;;;;;;5041951;28;20203;-46
2022/05/25 12:04:40;;;;;;;1.52;0.90;;;19.30;87.70;;;;;;5044831;28;20493;-47
2022/05/25 12:07:31;;;;;;;1.57;1.00;;;19.10;85.40;;;;;;5048600;28;20219;-49
2022/05/25 12:10:21;;;;;;;2.23;0.87;;;19.10;89.00;;;;;;5050113;28;20191;-44
2022/05/25 12:12:54;;;;;;;0.70;0.70;;;19.30;84.10;;;;;;5039129;28;20249;-44
2022/05/25 12:15:24;;;;;;;1.17;0.80;;;19.10;85.00;;;;;;5048620;28;20211;-44
2022/05/25 12:18:03;;;;;;;0.83;0.83;;;18.90;83.50;;;;;;5047192;28;20230;-47
2022/05/25 12:20:37;;;;;;;6.17;1.83;;;18.80;82.40;;;;;;5043296;28;20199;-47
2022/05/25 12:23:07;;;;;;;1.27;1.17;;;18.90;85.20;;;;;;5049511;28;20204;-46
2022/05/25 12:25:36;;;;;;;2.97;2.00;;;18.90;87.10;;;;;;5047971;28;20777;-44
2022/05/25 12:28:04;;;;;;;1.67;1.00;;;19.10;86.30;;;;;;5046556;28;20333;-44
2022/05/25 12:30:33;;;;;;;1.33;1.23;;;19.20;87.00;;;;;;5042422;28;20206;-50
2022/05/25 12:33:03;;;;;;;0.60;0.60;;;19.40;87.80;;;;;;5045506;28;20203;-51
2022/05/25 12:35:34;;;;;;;1.83;1.10;;;19.40;86.30;;;;;;5044064;28;20200;-49
2022/05/25 12:38:03;;;;;;;0.73;0.73;;;19.40;85.20;;;;;;5044087;28;20230;-44
2022/05/25 12:40:45;;;;;;;1.50;1.30;;;19.50;85.80;;;;;;5048231;28;20252;-47
2022/05/25 12:43:49;;;;;;;2.37;1.70;;;19.70;86.00;;;;;;5045859;28;20206;-49
2022/05/25 12:49:09;;;;;;;2.10;1.07;;;19.90;82.30;;;;;;5049727;28;20222;-50
2022/05/25 12:51:40;;;;;;;1.77;0.80;;;20.10;82.80;;;;;;5039645;28;20770;-48
2022/05/25 12:54:20;;;;;;;1.77;1.50;;;20.00;84.00;;;;;;5039805;28;20195;-45
2022/05/25 12:56:49;;;;;;;2.00;1.50;;;20.00;81.80;;;;;;5042493;28;20195;-44
2022/05/25 12:59:30;;;;;;;0.83;0.80;;;20.10;82.50;;;;;;5035235;28;20207;-46
2022/05/25 13:02:13;;;;;;;2.07;1.10;;;20.60;80.90;;;;;;5045732;28;20203;-46
2022/05/25 13:04:48;;;;;;;6.47;1.53;;;20.80;79.00;;;;;;5041597;28;20210;-47
2022/05/25 13:07:39;;;;;;;1.27;1.17;;;21.30;74.90;;;;;;5045239;28;20222;-48
2022/05/25 13:10:38;;;;;;;1.10;1.10;;;21.40;74.20;;;;;;5045544;28;20196;-49
2022/05/25 13:13:37;;;;;;;1.00;0.80;;;21.10;75.20;;;;;;5045013;28;20218;-44
2022/05/25 13:16:04;;;;;;;1.93;0.90;;;20.70;72.60;;;;;;5038698;28;20196;-47
2022/05/25 13:18:55;;;;;;;0.70;0.70;;;20.70;75.40;;;;;;5042233;28;20225;-48
2022/05/25 13:21:39;;;;;;;0.80;0.70;;;20.60;73.00;;;;;;5043054;28;20211;-48
2022/05/25 13:24:41;;;;;;;4.27;0.90;;;20.80;72.80;;;;;;5037130;28;20690;-46
2022/05/25 13:27:25;;;;;;;2.33;0.70;;;20.90;72.10;;;;;;5040913;28;20246;-47
2022/05/25 13:30:07;;;;;;;1.73;0.80;;;20.90;70.80;;;;;;5048569;28;20199;-48
2022/05/25 13:32:37;;;;;;;1.50;1.40;;;21.00;74.50;;;;;;5047460;28;20293;-46
2022/05/25 13:35:29;;;;;;;1.10;1.10;;;21.00;74.30;;;;;;5052599;28;20201;-48
2022/05/25 13:38:00;;;;;;;1.13;1.03;;;20.60;73.50;;;;;;5052178;28;20298;-46
2022/05/25 13:40:36;;;;;;;0.80;0.80;;;20.20;75.20;;;;;;5041021;28;20679;-45